Time;durP1;ratioP1;P1;durP2;ratioP2;P2;SDS_P1;SDS_P2;PMS_P1;PMS_P2;Temp;Humidity;BMP_temperature;BMP_pressure;BME280_temperature;BME280_humidity;BME280_pressure;Samples;Min_cycle;Max_cycle;Signal;HPM_P1;HPM_P2
2023/09/24 00:00:57;;;;;;;0.80;0.80;;;;;10.40;96713.00;;;;4994633;28;20201;-57
2023/09/24 00:03:25;;;;;;;0.60;0.60;;;;;10.40;96713.00;;;;4994519;28;20645;-59
2023/09/24 00:05:53;;;;;;;0.60;0.60;;;;;10.40;96720.00;;;;4994363;28;20276;-58
2023/09/24 00:08:22;;;;;;;0.87;0.87;;;;;10.40;96720.00;;;;4994326;28;20257;-58
2023/09/24 00:10:52;;;;;;;0.97;0.97;;;;;10.40;96724.00;;;;4994211;28;20264;-57
2023/09/24 00:13:21;;;;;;;0.63;0.63;;;;;10.30;96719.00;;;;4994210;28;20197;-57
2023/09/24 00:15:49;;;;;;;0.83;0.83;;;;;10.20;96728.00;;;;4994191;28;20277;-57
2023/09/24 00:18:17;;;;;;;2.67;0.87;;;;;10.10;96720.00;;;;4994294;28;20220;-57
2023/09/24 00:20:44;;;;;;;0.80;0.80;;;;;10.10;96717.00;;;;4994007;28;20201;-58
2023/09/24 00:23:12;;;;;;;1.00;1.00;;;;;10.00;96724.00;;;;4992983;28;20205;-57
2023/09/24 00:25:40;;;;;;;0.70;0.70;;;;;10.00;96725.00;;;;4994129;28;20213;-59
2023/09/24 00:28:08;;;;;;;0.73;0.73;;;;;9.90;96733.00;;;;4994206;28;20194;-57
2023/09/24 00:30:36;;;;;;;1.30;1.20;;;;;9.90;96734.00;;;;4994030;28;20226;-57
2023/09/24 00:33:04;;;;;;;0.50;0.50;;;;;9.90;96728.00;;;;4993953;28;20280;-57
2023/09/24 00:35:32;;;;;;;1.00;1.00;;;;;9.90;96730.00;;;;4993884;28;20213;-57
2023/09/24 00:37:59;;;;;;;0.60;0.60;;;;;9.90;96727.00;;;;4993831;28;20316;-57
2023/09/24 00:40:26;;;;;;;0.73;0.73;;;;;9.90;96724.00;;;;4994087;28;20272;-57
2023/09/24 00:42:55;;;;;;;0.60;0.60;;;;;9.90;96740.00;;;;4994040;28;20248;-57
2023/09/24 00:45:25;;;;;;;0.80;0.80;;;;;9.80;96749.00;;;;4993837;28;20202;-58
2023/09/24 00:47:53;;;;;;;0.60;0.60;;;;;9.80;96743.00;;;;4993782;28;20187;-58
2023/09/24 00:50:20;;;;;;;0.77;0.77;;;;;9.90;96741.00;;;;4993786;28;20195;-57
2023/09/24 00:52:50;;;;;;;0.60;0.60;;;;;9.80;96745.00;;;;4993639;28;20218;-58
2023/09/24 00:55:18;;;;;;;0.70;0.70;;;;;9.60;96750.00;;;;4994354;28;20209;-57
2023/09/24 00:57:49;;;;;;;1.07;1.07;;;;;9.30;96741.00;;;;4993643;28;20693;-58
2023/09/24 01:00:19;;;;;;;1.67;1.57;;;;;9.10;96744.00;;;;4976766;28;20201;-57
2023/09/24 01:02:50;;;;;;;0.80;0.80;;;;;9.20;96745.00;;;;4993572;28;20214;-56
2023/09/24 01:05:18;;;;;;;0.97;0.97;;;;;9.30;96753.00;;;;4995895;28;20249;-57
2023/09/24 01:07:46;;;;;;;1.17;1.07;;;;;9.30;96747.00;;;;4997874;28;20194;-56
2023/09/24 01:10:15;;;;;;;0.70;0.70;;;;;9.30;96750.00;;;;4997729;28;20194;-56
2023/09/24 01:12:54;;;;;;;0.73;0.73;;;;;9.40;96758.00;;;;4997989;28;20217;-56
2023/09/24 01:15:25;;;;;;;0.73;0.73;;;;;9.40;96759.00;;;;4997817;28;20637;-56
2023/09/24 01:17:52;;;;;;;0.97;0.97;;;;;9.30;96756.00;;;;4997879;28;20256;-56
2023/09/24 01:20:21;;;;;;;0.93;0.93;;;;;9.30;96751.00;;;;4997755;28;20198;-56
2023/09/24 01:22:50;;;;;;;0.70;0.70;;;;;9.30;96746.00;;;;4997252;28;20218;-56
2023/09/24 01:25:19;;;;;;;0.97;0.97;;;;;9.30;96757.00;;;;4998037;28;20194;-57
2023/09/24 01:27:48;;;;;;;0.60;0.60;;;;;9.30;96762.00;;;;4980011;28;20285;-57
2023/09/24 01:30:15;;;;;;;0.60;0.60;;;;;9.20;96759.00;;;;4997776;28;20206;-57
2023/09/24 01:32:44;;;;;;;0.67;0.67;;;;;9.30;96758.00;;;;4997600;28;20236;-58
2023/09/24 01:35:11;;;;;;;0.50;0.50;;;;;9.20;96749.00;;;;4997963;28;20202;-57
2023/09/24 01:37:39;;;;;;;0.80;0.80;;;;;9.10;96758.00;;;;4997553;28;20301;-57
2023/09/24 01:40:18;;;;;;;0.70;0.70;;;;;9.00;96744.00;;;;4997291;28;20190;-57
2023/09/24 01:42:46;;;;;;;0.60;0.60;;;;;8.90;96746.00;;;;4997105;28;20279;-57
2023/09/24 01:45:14;;;;;;;0.60;0.60;;;;;9.10;96746.00;;;;4997305;28;20272;-57
2023/09/24 01:47:44;;;;;;;0.70;0.70;;;;;9.20;96734.00;;;;4997147;28;20190;-57
2023/09/24 01:50:11;;;;;;;0.70;0.70;;;;;9.10;96740.00;;;;4997487;28;20194;-57
2023/09/24 01:52:41;;;;;;;0.83;0.83;;;;;9.10;96743.00;;;;4997567;28;20214;-57
2023/09/24 01:55:13;;;;;;;0.60;0.60;;;;;9.10;96747.00;;;;4979577;28;20201;-57
2023/09/24 01:57:41;;;;;;;0.73;0.73;;;;;9.10;96743.00;;;;4997223;28;20264;-57
2023/09/24 02:00:15;;;;;;;0.90;0.90;;;;;9.10;96750.00;;;;4997151;28;20646;-57
2023/09/24 02:02:43;;;;;;;0.80;0.80;;;;;9.10;96752.00;;;;4996659;28;20525;-57
2023/09/24 02:05:11;;;;;;;0.70;0.70;;;;;9.10;96757.00;;;;4996800;28;20550;-57
2023/09/24 02:07:40;;;;;;;0.90;0.90;;;;;9.00;96762.00;;;;4996570;28;20186;-57
2023/09/24 02:10:08;;;;;;;0.77;0.77;;;;;9.00;96759.00;;;;4996506;28;20198;-57
2023/09/24 02:12:38;;;;;;;1.33;1.23;;;;;9.10;96754.00;;;;4996349;28;20225;-57
2023/09/24 02:15:09;;;;;;;0.87;0.87;;;;;9.10;96759.00;;;;4996130;28;20198;-57
2023/09/24 02:17:39;;;;;;;0.70;0.70;;;;;9.10;96755.00;;;;4996293;28;20213;-56
2023/09/24 02:20:10;;;;;;;0.67;0.67;;;;;9.10;96762.00;;;;4996603;28;20273;-56
2023/09/24 02:22:38;;;;;;;0.87;0.87;;;;;9.20;96769.00;;;;4996826;28;20288;-56
2023/09/24 02:25:07;;;;;;;0.63;0.63;;;;;9.10;96762.00;;;;4996464;28;20193;-57
2023/09/24 02:27:38;;;;;;;0.97;0.97;;;;;9.00;96770.00;;;;4996029;28;20276;-57
2023/09/24 02:30:06;;;;;;;0.80;0.80;;;;;8.90;96779.00;;;;4996402;28;20174;-57
2023/09/24 02:32:42;;;;;;;0.73;0.73;;;;;8.60;96773.00;;;;4996099;28;20220;-57
2023/09/24 02:35:13;;;;;;;0.70;0.70;;;;;8.80;96772.00;;;;4996277;28;20198;-57
2023/09/24 02:37:41;;;;;;;0.80;0.80;;;;;8.70;96771.00;;;;4995910;28;20222;-57
2023/09/24 02:40:11;;;;;;;0.57;0.57;;;;;8.70;96772.00;;;;4996336;28;20202;-57
2023/09/24 02:42:40;;;;;;;0.70;0.70;;;;;8.70;96767.00;;;;4995910;28;20225;-57
2023/09/24 02:45:09;;;;;;;0.90;0.90;;;;;8.80;96766.00;;;;4996591;28;20592;-57
2023/09/24 02:47:36;;;;;;;0.70;0.70;;;;;8.50;96774.00;;;;4996055;28;20198;-57
2023/09/24 02:50:07;;;;;;;0.60;0.60;;;;;8.60;96777.00;;;;4996076;28;20198;-57
2023/09/24 02:52:38;;;;;;;0.80;0.80;;;;;8.60;96786.00;;;;4995699;28;20600;-58
2023/09/24 02:55:07;;;;;;;0.80;0.80;;;;;8.60;96789.00;;;;4995766;28;20274;-57
2023/09/24 02:57:35;;;;;;;0.80;0.80;;;;;8.60;96786.00;;;;4995479;28;20218;-58
2023/09/24 03:00:10;;;;;;;0.87;0.87;;;;;8.70;96781.00;;;;4978107;28;20256;-57
2023/09/24 03:02:38;;;;;;;0.60;0.60;;;;;8.60;96778.00;;;;4995557;28;20762;-57
2023/09/24 03:05:08;;;;;;;0.60;0.60;;;;;8.50;96780.00;;;;4996041;28;20672;-56
2023/09/24 03:07:36;;;;;;;0.70;0.70;;;;;8.50;96784.00;;;;4995385;28;20201;-56
2023/09/24 03:10:06;;;;;;;0.80;0.80;;;;;8.40;96784.00;;;;4977909;28;20199;-56
2023/09/24 03:12:34;;;;;;;0.73;0.73;;;;;8.50;96788.00;;;;4995408;28;20625;-56
2023/09/24 03:15:05;;;;;;;0.60;0.60;;;;;8.40;96782.00;;;;4995771;28;20288;-56
2023/09/24 03:17:33;;;;;;;0.67;0.67;;;;;8.50;96799.00;;;;4995826;28;20284;-56
2023/09/24 03:20:11;;;;;;;0.60;0.60;;;;;8.40;96789.00;;;;4995428;28;20205;-56
2023/09/24 03:22:38;;;;;;;0.50;0.50;;;;;8.50;96803.00;;;;4996022;28;20222;-57
2023/09/24 03:25:11;;;;;;;0.70;0.70;;;;;8.60;96793.00;;;;4995386;28;20550;-58
2023/09/24 03:27:39;;;;;;;0.93;0.93;;;;;8.50;96802.00;;;;4994711;28;20222;-57
2023/09/24 03:30:11;;;;;;;0.60;0.60;;;;;8.60;96801.00;;;;4995053;28;20269;-57
2023/09/24 03:32:39;;;;;;;0.57;0.57;;;;;8.50;96805.00;;;;4995087;28;20222;-57
2023/09/24 03:35:09;;;;;;;0.87;0.87;;;;;8.70;96804.00;;;;4994920;28;20244;-57
2023/09/24 03:37:40;;;;;;;0.90;0.90;;;;;8.60;96811.00;;;;4994771;28;20285;-57
2023/09/24 03:40:09;;;;;;;1.03;0.70;;;;;8.40;96803.00;;;;4995399;28;20225;-57
2023/09/24 03:42:37;;;;;;;0.60;0.60;;;;;8.50;96806.00;;;;4994860;28;20217;-59
2023/09/24 03:45:06;;;;;;;0.67;0.67;;;;;8.50;96814.00;;;;4994929;28;20603;-56
2023/09/24 03:47:35;;;;;;;0.80;0.80;;;;;8.50;96812.00;;;;4995369;28;20196;-57
2023/09/24 03:50:03;;;;;;;0.60;0.60;;;;;8.50;96814.00;;;;4995672;28;20277;-56
2023/09/24 03:52:31;;;;;;;0.53;0.53;;;;;8.40;96815.00;;;;4994942;28;20705;-57
2023/09/24 03:55:00;;;;;;;0.60;0.60;;;;;8.40;96819.00;;;;4995174;28;20661;-57
2023/09/24 03:57:28;;;;;;;0.60;0.60;;;;;8.40;96814.00;;;;4994854;28;20224;-56
2023/09/24 03:59:56;;;;;;;0.87;0.87;;;;;8.20;96822.00;;;;4994696;28;20220;-57
2023/09/24 04:02:23;;;;;;;0.70;0.70;;;;;8.20;96831.00;;;;4994386;28;20231;-57
2023/09/24 04:04:52;;;;;;;0.70;0.70;;;;;8.20;96819.00;;;;4994639;28;20597;-57
2023/09/24 04:07:21;;;;;;;3.47;1.80;;;;;8.30;96825.00;;;;4994298;28;20681;-58
2023/09/24 04:09:49;;;;;;;0.80;0.80;;;;;8.10;96832.00;;;;4994554;28;20202;-58
2023/09/24 04:12:16;;;;;;;0.73;0.73;;;;;8.00;96840.00;;;;4994167;28;20289;-57
2023/09/24 04:14:44;;;;;;;0.57;0.57;;;;;7.90;96843.00;;;;4994182;28;20205;-59
2023/09/24 04:17:11;;;;;;;1.17;0.80;;;;;7.80;96853.00;;;;4994108;28;20202;-57
2023/09/24 04:19:39;;;;;;;0.87;0.87;;;;;7.80;96842.00;;;;4994048;28;20222;-57
2023/09/24 04:22:08;;;;;;;0.60;0.60;;;;;7.90;96847.00;;;;4994214;28;20257;-57
2023/09/24 04:24:36;;;;;;;0.80;0.80;;;;;7.90;96861.00;;;;4976519;28;20252;-57
2023/09/24 04:27:03;;;;;;;0.40;0.40;;;;;7.90;96862.00;;;;4994136;28;20274;-57
2023/09/24 04:29:30;;;;;;;0.50;0.50;;;;;7.70;96855.00;;;;4994199;28;20550;-57
2023/09/24 04:31:58;;;;;;;0.70;0.70;;;;;7.60;96858.00;;;;4993919;28;20241;-57
2023/09/24 04:34:25;;;;;;;0.70;0.70;;;;;7.60;96866.00;;;;4993831;28;20677;-57
2023/09/24 04:36:53;;;;;;;0.60;0.60;;;;;7.60;96871.00;;;;4993945;28;20551;-58
2023/09/24 04:39:23;;;;;;;0.50;0.50;;;;;7.70;96868.00;;;;4993751;28;20232;-57
2023/09/24 04:41:50;;;;;;;0.60;0.60;;;;;7.60;96859.00;;;;4994201;28;20221;-56
2023/09/24 04:44:18;;;;;;;0.70;0.70;;;;;7.50;96865.00;;;;4993761;28;20198;-56
2023/09/24 04:46:45;;;;;;;0.67;0.67;;;;;7.60;96869.00;;;;4993728;28;20194;-56
2023/09/24 04:49:12;;;;;;;0.67;0.67;;;;;7.50;96871.00;;;;4993722;28;20606;-56
2023/09/24 04:51:41;;;;;;;0.93;0.93;;;;;7.40;96874.00;;;;4993490;28;20694;-56
2023/09/24 04:54:09;;;;;;;0.60;0.60;;;;;7.30;96871.00;;;;4993676;28;20213;-56
2023/09/24 04:56:38;;;;;;;0.63;0.63;;;;;7.40;96873.00;;;;4993751;28;20681;-58
2023/09/24 04:59:05;;;;;;;0.60;0.60;;;;;7.30;96880.00;;;;4993523;28;20313;-57
2023/09/24 05:01:32;;;;;;;0.50;0.50;;;;;7.50;96887.00;;;;4993388;28;20229;-58
2023/09/24 05:04:03;;;;;;;0.60;0.60;;;;;7.50;96886.00;;;;4994166;28;20201;-57
2023/09/24 05:06:32;;;;;;;2.00;0.80;;;;;7.60;96884.00;;;;4993594;28;20641;-57
2023/09/24 05:08:59;;;;;;;0.67;0.67;;;;;7.70;96883.00;;;;4993571;28;20198;-57
2023/09/24 05:11:26;;;;;;;0.67;0.67;;;;;7.70;96891.00;;;;4993741;28;20218;-57
2023/09/24 05:13:55;;;;;;;0.60;0.60;;;;;7.70;96902.00;;;;4993666;28;20190;-57
2023/09/24 05:16:22;;;;;;;0.60;0.60;;;;;7.70;96896.00;;;;4993365;28;20201;-57
2023/09/24 05:18:50;;;;;;;0.70;0.70;;;;;7.50;96900.00;;;;4993330;28;20218;-57
2023/09/24 05:21:19;;;;;;;0.50;0.50;;;;;7.50;96905.00;;;;4993296;28;20216;-57
2023/09/24 05:23:46;;;;;;;0.60;0.60;;;;;7.60;96912.00;;;;4993822;28;20189;-57
2023/09/24 05:26:14;;;;;;;0.50;0.50;;;;;7.60;96911.00;;;;4993824;28;20542;-57
2023/09/24 05:28:43;;;;;;;0.50;0.50;;;;;7.60;96921.00;;;;4993654;28;20666;-59
2023/09/24 05:31:12;;;;;;;0.60;0.60;;;;;7.70;96923.00;;;;4993510;28;20218;-58
2023/09/24 05:33:41;;;;;;;0.60;0.60;;;;;7.70;96922.00;;;;4993143;28;20199;-59
2023/09/24 05:36:09;;;;;;;0.60;0.60;;;;;7.80;96929.00;;;;4993297;28;20198;-58
2023/09/24 05:38:37;;;;;;;1.00;1.00;;;;;7.80;96920.00;;;;4993229;28;20304;-58
2023/09/24 05:41:05;;;;;;;1.00;1.00;;;;;7.80;96922.00;;;;4993127;28;20222;-58
2023/09/24 05:43:32;;;;;;;0.70;0.70;;;;;7.70;96922.00;;;;4993161;28;20216;-57
2023/09/24 05:46:01;;;;;;;0.70;0.70;;;;;7.70;96921.00;;;;4993638;28;20198;-58
2023/09/24 05:48:30;;;;;;;0.90;0.90;;;;;7.70;96930.00;;;;4993107;28;20188;-57
2023/09/24 05:50:57;;;;;;;0.80;0.80;;;;;7.70;96928.00;;;;4994100;28;20277;-57
2023/09/24 05:53:24;;;;;;;0.60;0.60;;;;;7.70;96937.00;;;;4996730;28;20201;-57
2023/09/24 05:55:53;;;;;;;0.63;0.63;;;;;7.70;96928.00;;;;4996619;28;20288;-57
2023/09/24 05:58:20;;;;;;;0.60;0.60;;;;;7.60;96927.00;;;;4996815;28;20194;-57
2023/09/24 06:00:48;;;;;;;0.70;0.70;;;;;7.60;96924.00;;;;4996976;28;20649;-57
2023/09/24 06:03:16;;;;;;;0.70;0.70;;;;;7.60;96927.00;;;;4996854;28;20221;-57
2023/09/24 06:05:45;;;;;;;0.70;0.70;;;;;7.70;96922.00;;;;4996642;28;20273;-57
2023/09/24 06:08:12;;;;;;;0.60;0.60;;;;;7.80;96931.00;;;;4996664;28;20554;-57
2023/09/24 06:10:44;;;;;;;0.63;0.63;;;;;8.00;96924.00;;;;4996378;28;20201;-57
2023/09/24 06:13:14;;;;;;;0.90;0.90;;;;;8.10;96929.00;;;;4996620;28;20182;-58
2023/09/24 06:15:41;;;;;;;0.50;0.50;;;;;8.00;96929.00;;;;4996415;28;20198;-57
2023/09/24 06:18:10;;;;;;;0.60;0.60;;;;;8.00;96935.00;;;;4996261;28;20256;-57
2023/09/24 06:20:39;;;;;;;0.60;0.60;;;;;8.00;96931.00;;;;4996272;28;20241;-57
2023/09/24 06:23:09;;;;;;;0.70;0.70;;;;;8.20;96938.00;;;;4978840;28;20225;-57
2023/09/24 06:25:37;;;;;;;0.60;0.60;;;;;8.10;96943.00;;;;4996185;28;20194;-57
2023/09/24 06:28:09;;;;;;;0.67;0.67;;;;;8.10;96943.00;;;;4996143;28;20199;-57
2023/09/24 06:30:36;;;;;;;0.60;0.60;;;;;8.00;96940.00;;;;4996260;28;20229;-57
2023/09/24 06:33:04;;;;;;;0.70;0.70;;;;;8.00;96940.00;;;;4996033;28;20734;-57
2023/09/24 06:35:32;;;;;;;0.60;0.60;;;;;7.90;96942.00;;;;4995945;28;20202;-57
2023/09/24 06:38:00;;;;;;;0.70;0.70;;;;;7.80;96948.00;;;;4995920;28;20194;-57
2023/09/24 06:40:29;;;;;;;1.17;1.07;;;;;7.90;96946.00;;;;4995945;28;20217;-57
2023/09/24 06:42:57;;;;;;;0.70;0.70;;;;;8.00;96944.00;;;;4995711;28;20559;-57
2023/09/24 06:45:24;;;;;;;0.53;0.53;;;;;8.20;96944.00;;;;4995942;28;20249;-57
2023/09/24 06:47:51;;;;;;;0.63;0.63;;;;;8.30;96944.00;;;;4995847;28;20557;-57
2023/09/24 06:50:19;;;;;;;0.60;0.60;;;;;8.40;96950.00;;;;4996188;28;20567;-58
2023/09/24 06:52:46;;;;;;;0.50;0.50;;;;;8.70;96953.00;;;;4996045;28;20610;-57
2023/09/24 06:55:14;;;;;;;0.60;0.60;;;;;8.80;96935.00;;;;4995922;28;20194;-57
2023/09/24 06:57:42;;;;;;;0.90;0.90;;;;;8.70;96945.00;;;;4995765;28;20198;-57
2023/09/24 07:00:11;;;;;;;0.60;0.60;;;;;8.80;96940.00;;;;4995489;28;20214;-57
2023/09/24 07:02:39;;;;;;;0.60;0.60;;;;;9.00;96943.00;;;;4995440;28;20252;-57
2023/09/24 07:05:08;;;;;;;0.63;0.63;;;;;8.60;96935.00;;;;4995733;28;20561;-57
2023/09/24 07:07:36;;;;;;;0.83;0.83;;;;;8.90;96947.00;;;;4995631;28;20204;-57
2023/09/24 07:10:04;;;;;;;0.60;0.60;;;;;9.00;96949.00;;;;4995327;28;20191;-57
2023/09/24 07:12:31;;;;;;;0.60;0.60;;;;;9.20;96950.00;;;;4995196;28;20216;-57
2023/09/24 07:15:00;;;;;;;0.73;0.73;;;;;9.30;96949.00;;;;4995630;28;20252;-57
2023/09/24 07:17:27;;;;;;;0.50;0.50;;;;;9.50;96952.00;;;;4995615;28;20186;-57
2023/09/24 07:19:55;;;;;;;0.80;0.80;;;;;9.70;96952.00;;;;4995315;28;20218;-58
2023/09/24 07:22:26;;;;;;;0.60;0.60;;;;;9.80;96946.00;;;;4995259;28;20218;-57
2023/09/24 07:24:54;;;;;;;0.73;0.73;;;;;9.80;96952.00;;;;4995525;28;20642;-57
2023/09/24 07:27:21;;;;;;;0.60;0.60;;;;;9.80;96958.00;;;;4995240;28;20194;-58
2023/09/24 07:29:49;;;;;;;0.70;0.70;;;;;9.70;96958.00;;;;4977744;28;20216;-58
2023/09/24 07:32:17;;;;;;;0.80;0.80;;;;;9.90;96957.00;;;;4995092;28;20677;-58
2023/09/24 07:34:46;;;;;;;0.70;0.70;;;;;9.90;96951.00;;;;4995680;28;20205;-58
2023/09/24 07:37:14;;;;;;;0.60;0.60;;;;;9.70;96957.00;;;;4977598;28;20209;-58
2023/09/24 07:39:42;;;;;;;0.53;0.53;;;;;10.00;96960.00;;;;4994831;28;20217;-61
2023/09/24 07:42:09;;;;;;;0.80;0.80;;;;;10.20;96965.00;;;;4995288;28;20684;-56
2023/09/24 07:44:36;;;;;;;0.67;0.67;;;;;10.20;96971.00;;;;4995444;28;20195;-56
2023/09/24 07:47:04;;;;;;;0.60;0.60;;;;;10.20;96965.00;;;;4994768;28;20204;-56
2023/09/24 07:49:32;;;;;;;0.70;0.70;;;;;10.40;96972.00;;;;4994637;28;20197;-57
2023/09/24 07:52:00;;;;;;;0.60;0.60;;;;;10.20;96971.00;;;;4994526;28;20210;-57
2023/09/24 07:54:28;;;;;;;0.60;0.60;;;;;10.20;96966.00;;;;4977607;28;20201;-58
2023/09/24 07:56:56;;;;;;;1.00;1.00;;;;;10.30;96971.00;;;;4994457;28;20742;-57
2023/09/24 07:59:24;;;;;;;0.70;0.70;;;;;10.30;96969.00;;;;4994569;28;20221;-58
2023/09/24 08:01:51;;;;;;;0.90;0.90;;;;;10.40;96970.00;;;;4994911;28;20241;-57
2023/09/24 08:04:18;;;;;;;1.13;1.13;;;;;10.40;96970.00;;;;4994777;28;20209;-57
2023/09/24 08:06:47;;;;;;;0.80;0.80;;;;;10.40;96971.00;;;;4995013;28;20217;-57
2023/09/24 08:09:15;;;;;;;1.10;1.10;;;;;10.60;96976.00;;;;4994603;28;20281;-58
2023/09/24 08:11:42;;;;;;;0.60;0.60;;;;;10.70;96981.00;;;;4994444;28;20217;-57
2023/09/24 08:14:10;;;;;;;0.63;0.63;;;;;10.80;96983.00;;;;4993991;28;20194;-58
2023/09/24 08:16:37;;;;;;;0.63;0.63;;;;;10.80;96979.00;;;;4994475;28;20284;-57
2023/09/24 08:19:04;;;;;;;0.60;0.60;;;;;10.90;96973.00;;;;4994072;28;20599;-57
2023/09/24 08:21:32;;;;;;;0.67;0.67;;;;;11.10;96973.00;;;;4994058;28;20214;-58
2023/09/24 08:24:01;;;;;;;0.90;0.90;;;;;11.40;96965.00;;;;4994134;28;20221;-58
2023/09/24 08:26:29;;;;;;;0.70;0.70;;;;;11.50;96973.00;;;;4994183;28;20198;-58
2023/09/24 08:28:56;;;;;;;0.97;0.97;;;;;11.60;96970.00;;;;4993963;28;20201;-58
2023/09/24 08:31:25;;;;;;;0.50;0.50;;;;;11.60;96970.00;;;;4993955;28;20712;-57
2023/09/24 08:33:53;;;;;;;0.70;0.70;;;;;11.70;96976.00;;;;4993960;28;20194;-57
2023/09/24 08:36:21;;;;;;;1.23;1.10;;;;;11.90;96969.00;;;;4994157;28;20201;-57
2023/09/24 08:38:49;;;;;;;0.87;0.87;;;;;12.10;96974.00;;;;4993911;28;20273;-58
2023/09/24 08:41:18;;;;;;;0.60;0.60;;;;;12.20;96972.00;;;;4994002;28;20229;-57
2023/09/24 08:43:47;;;;;;;0.83;0.83;;;;;12.40;96973.00;;;;4994152;28;20545;-57
2023/09/24 08:46:16;;;;;;;1.00;1.00;;;;;12.50;96972.00;;;;4993989;28;20202;-57
2023/09/24 08:48:43;;;;;;;0.67;0.67;;;;;12.60;96982.00;;;;4993824;28;20280;-58
2023/09/24 08:51:12;;;;;;;0.93;0.80;;;;;12.60;96972.00;;;;4993846;28;20241;-58
2023/09/24 08:53:40;;;;;;;0.80;0.80;;;;;12.70;96971.00;;;;4994077;28;20205;-56
2023/09/24 08:56:07;;;;;;;1.37;1.10;;;;;12.90;96965.00;;;;4993725;28;20683;-57
2023/09/24 08:58:36;;;;;;;1.03;1.03;;;;;13.10;96966.00;;;;4993756;28;20194;-58
2023/09/24 09:01:08;;;;;;;0.70;0.70;;;;;13.10;96965.00;;;;4993506;28;20222;-58
2023/09/24 09:03:36;;;;;;;0.60;0.60;;;;;13.30;96957.00;;;;4993629;28;20191;-57
2023/09/24 09:06:03;;;;;;;1.37;1.27;;;;;13.70;96958.00;;;;4993516;28;20186;-58
2023/09/24 09:08:49;;;;;;;0.63;0.63;;;;;13.90;96970.00;;;;4993862;28;20213;-58
2023/09/24 09:11:17;;;;;;;1.00;1.00;;;;;13.90;96961.00;;;;4994013;28;20210;-58
2023/09/24 09:13:47;;;;;;;0.60;0.60;;;;;14.00;96960.00;;;;4993492;28;20204;-56
2023/09/24 09:16:16;;;;;;;0.60;0.60;;;;;13.90;96957.00;;;;4993422;28;20206;-56
2023/09/24 09:18:43;;;;;;;0.63;0.63;;;;;14.20;96954.00;;;;4993661;28;20218;-56
2023/09/24 09:21:24;;;;;;;1.23;0.80;;;;;14.30;96952.00;;;;4993549;28;20689;-56
2023/09/24 09:23:51;;;;;;;1.00;1.00;;;;;14.40;96948.00;;;;4993575;28;20189;-57
2023/09/24 09:26:19;;;;;;;0.87;0.87;;;;;14.70;96950.00;;;;4995047;28;20204;-56
2023/09/24 09:28:47;;;;;;;0.67;0.67;;;;;14.90;96953.00;;;;4997335;28;20221;-57
2023/09/24 09:31:15;;;;;;;0.93;0.90;;;;;14.90;96951.00;;;;4997123;28;20206;-58
2023/09/24 09:33:44;;;;;;;0.53;0.53;;;;;15.00;96948.00;;;;4997089;28;20201;-58
2023/09/24 09:36:22;;;;;;;1.60;0.90;;;;;15.10;96949.00;;;;4997188;28;20194;-58
2023/09/24 09:38:49;;;;;;;0.60;0.60;;;;;15.30;96945.00;;;;4997655;28;20189;-58
2023/09/24 09:41:19;;;;;;;2.60;1.23;;;;;15.10;96956.00;;;;4997021;28;20229;-57
2023/09/24 09:43:49;;;;;;;0.60;0.60;;;;;14.90;96960.00;;;;4997260;28;20229;-58
2023/09/24 09:46:19;;;;;;;1.07;1.07;;;;;14.80;96940.00;;;;4997269;28;20186;-58
2023/09/24 09:48:54;;;;;;;0.70;0.70;;;;;15.10;96935.00;;;;4996935;28;20200;-58
2023/09/24 09:51:22;;;;;;;2.30;1.53;;;;;15.40;96952.00;;;;4996897;28;20657;-57
2023/09/24 09:53:53;;;;;;;0.83;0.83;;;;;15.10;96955.00;;;;4996736;28;20195;-57
2023/09/24 09:56:22;;;;;;;1.10;1.00;;;;;15.10;96954.00;;;;4996622;28;20206;-57
2023/09/24 09:58:53;;;;;;;0.60;0.60;;;;;15.00;96959.00;;;;4996839;28;20212;-57
2023/09/24 10:01:21;;;;;;;0.97;0.97;;;;;15.20;96945.00;;;;4996951;28;20222;-58
2023/09/24 10:03:51;;;;;;;0.60;0.60;;;;;15.40;96940.00;;;;4996563;28;20244;-57
2023/09/24 10:06:19;;;;;;;0.80;0.80;;;;;15.30;96945.00;;;;4997011;28;20773;-59
2023/09/24 10:08:48;;;;;;;0.63;0.63;;;;;15.20;96948.00;;;;4996774;28;20206;-58
2023/09/24 10:11:48;;;;;;;0.77;0.77;;;;;15.10;96939.00;;;;4996566;28;20245;-59
2023/09/24 10:14:33;;;;;;;0.50;0.50;;;;;15.80;96940.00;;;;4996609;28;20279;-57
2023/09/24 10:17:22;;;;;;;1.10;1.10;;;;;15.90;96952.00;;;;4996929;28;20638;-57
2023/09/24 10:19:51;;;;;;;0.60;0.60;;;;;15.80;96931.00;;;;4996832;28;20225;-57
2023/09/24 10:22:25;;;;;;;0.70;0.70;;;;;16.30;96920.00;;;;4996378;28;20268;-57
2023/09/24 10:24:53;;;;;;;0.83;0.83;;;;;16.50;96930.00;;;;4996279;28;20248;-57
2023/09/24 10:27:27;;;;;;;1.13;1.13;;;;;16.20;96945.00;;;;4997140;28;20210;-57
2023/09/24 10:30:07;;;;;;;0.60;0.60;;;;;16.10;96947.00;;;;4996531;28;20194;-58
2023/09/24 10:32:45;;;;;;;1.97;1.53;;;;;16.00;96938.00;;;;4996314;28;20297;-58
2023/09/24 10:35:13;;;;;;;0.50;0.50;;;;;16.20;96920.00;;;;4996467;28;20561;-58
2023/09/24 10:38:02;;;;;;;0.77;0.77;;;;;16.90;96915.00;;;;4995695;28;20199;-58
2023/09/24 10:40:31;;;;;;;0.60;0.60;;;;;17.10;96935.00;;;;4996284;28;20261;-58
2023/09/24 10:43:17;;;;;;;0.77;0.77;;;;;17.10;96917.00;;;;4996114;28;20214;-58
2023/09/24 10:45:47;;;;;;;1.07;1.07;;;;;17.30;96939.00;;;;4996421;28;20203;-57
2023/09/24 10:48:16;;;;;;;0.50;0.50;;;;;17.20;96910.00;;;;4996234;28;20225;-58
2023/09/24 10:50:44;;;;;;;0.60;0.60;;;;;17.50;96938.00;;;;4995935;28;20241;-58
2023/09/24 10:53:12;;;;;;;0.50;0.50;;;;;17.20;96936.00;;;;4996314;28;20202;-57
2023/09/24 10:55:42;;;;;;;0.60;0.60;;;;;17.00;96933.00;;;;4995798;28;20205;-58
2023/09/24 10:58:12;;;;;;;0.60;0.60;;;;;16.80;96928.00;;;;4996067;28;20273;-58
2023/09/24 11:00:41;;;;;;;0.60;0.60;;;;;16.70;96940.00;;;;4996084;28;20256;-59
2023/09/24 11:03:12;;;;;;;1.13;1.10;;;;;16.90;96911.00;;;;4978454;28;20198;-59
2023/09/24 11:05:45;;;;;;;0.90;0.90;;;;;17.30;96929.00;;;;4996083;28;20696;-60
2023/09/24 11:08:15;;;;;;;1.07;1.03;;;;;17.50;96925.00;;;;4995516;28;20186;-58
2023/09/24 11:10:46;;;;;;;0.40;0.40;;;;;17.60;96933.00;;;;4995394;28;20194;-58
2023/09/24 11:13:14;;;;;;;0.70;0.70;;;;;17.20;96926.00;;;;4995508;28;20182;-59
2023/09/24 11:15:42;;;;;;;0.77;0.77;;;;;16.90;96934.00;;;;4995411;28;20229;-60
2023/09/24 11:18:13;;;;;;;1.73;0.97;;;;;17.00;96924.00;;;;4995334;28;20194;-59
2023/09/24 11:20:49;;;;;;;2.13;1.00;;;;;16.90;96925.00;;;;4995432;28;20539;-59
2023/09/24 11:23:16;;;;;;;0.50;0.50;;;;;16.90;96896.00;;;;4995236;28;20201;-59
2023/09/24 11:25:48;;;;;;;1.50;1.33;;;;;17.30;96916.00;;;;4995468;28;20200;-59
2023/09/24 11:28:15;;;;;;;0.73;0.73;;;;;17.40;96914.00;;;;4995203;28;20186;-59
2023/09/24 11:30:45;;;;;;;0.40;0.40;;;;;16.90;96907.00;;;;4995324;28;20193;-59
2023/09/24 11:33:16;;;;;;;0.50;0.50;;;;;17.60;96885.00;;;;4995014;28;20282;-59
2023/09/24 11:35:44;;;;;;;1.60;0.87;;;;;18.70;96885.00;;;;4994967;28;20201;-58
2023/09/24 11:38:12;;;;;;;0.77;0.77;;;;;19.30;96888.00;;;;4994822;28;20193;-59
2023/09/24 11:40:41;;;;;;;0.73;0.73;;;;;19.80;96881.00;;;;4994819;28;20214;-59
2023/09/24 11:43:13;;;;;;;0.57;0.57;;;;;20.30;96885.00;;;;4977265;28;20201;-58
2023/09/24 11:45:48;;;;;;;0.63;0.63;;;;;20.70;96892.00;;;;4995030;28;20264;-59
2023/09/24 11:48:18;;;;;;;0.83;0.83;;;;;20.50;96884.00;;;;4994152;28;20186;-59
2023/09/24 11:50:47;;;;;;;0.70;0.70;;;;;19.80;96899.00;;;;4993591;28;20602;-59
2023/09/24 11:53:15;;;;;;;0.57;0.57;;;;;19.40;96900.00;;;;4994778;28;20273;-58
2023/09/24 11:55:43;;;;;;;0.50;0.50;;;;;19.70;96901.00;;;;4994489;28;20202;-58
2023/09/24 11:58:11;;;;;;;0.80;0.80;;;;;19.30;96871.00;;;;4994510;28;20218;-58
2023/09/24 12:00:39;;;;;;;0.80;0.80;;;;;19.60;96868.00;;;;4994658;28;20662;-59
2023/09/24 12:03:07;;;;;;;0.60;0.60;;;;;19.90;96862.00;;;;4994764;28;20190;-58
2023/09/24 12:05:36;;;;;;;0.80;0.80;;;;;20.00;96863.00;;;;4994701;28;20666;-58
2023/09/24 12:08:06;;;;;;;0.50;0.50;;;;;20.60;96863.00;;;;4995098;28;20277;-58
2023/09/24 12:10:36;;;;;;;0.50;0.50;;;;;21.00;96867.00;;;;4994646;28;20243;-58
2023/09/24 12:13:04;;;;;;;0.50;0.50;;;;;20.90;96866.00;;;;4994522;28;20214;-58
2023/09/24 12:15:33;;;;;;;0.90;0.90;;;;;19.90;96871.00;;;;4994521;28;20241;-58
2023/09/24 12:18:03;;;;;;;0.50;0.50;;;;;20.20;96864.00;;;;4994285;28;20285;-58
2023/09/24 12:20:31;;;;;;;1.03;0.87;;;;;20.90;96867.00;;;;4993117;28;20268;-58
2023/09/24 12:23:01;;;;;;;0.60;0.60;;;;;20.70;96877.00;;;;4994045;28;20228;-59
2023/09/24 12:25:29;;;;;;;0.83;0.83;;;;;20.20;96890.00;;;;4994782;28;20221;-58
2023/09/24 12:27:56;;;;;;;0.77;0.77;;;;;20.00;96892.00;;;;4994163;28;20197;-58
2023/09/24 12:30:25;;;;;;;0.50;0.50;;;;;19.60;96863.00;;;;4993995;28;20583;-58
2023/09/24 12:32:52;;;;;;;0.50;0.50;;;;;20.30;96861.00;;;;4976477;28;20238;-58